createdAt,value
2018-01-11T00:16:58.478Z,99.90
2018-01-11T00:19:27.138Z,99.90
2018-01-11T00:21:55.064Z,99.90
2018-01-11T00:24:23.865Z,99.90
2018-01-11T00:26:52.592Z,99.90
2018-01-11T00:29:20.538Z,99.90
2018-01-11T00:31:48.592Z,99.90
2018-01-11T00:34:17.257Z,99.90
2018-01-11T00:36:46.382Z,99.90
2018-01-11T00:39:14.447Z,99.90
2018-01-11T00:41:43.128Z,99.90
2018-01-11T00:44:11.894Z,99.90
2018-01-11T00:46:40.125Z,99.90
2018-01-11T00:49:08.105Z,99.90
2018-01-11T00:51:36.051Z,99.90
2018-01-11T00:54:04.145Z,99.90
2018-01-11T00:56:32.246Z,99.90
2018-01-11T00:59:01.022Z,99.90
2018-01-11T01:01:29.114Z,99.90
2018-01-11T01:03:57.094Z,99.90
2018-01-11T01:06:25.172Z,99.90
2018-01-11T01:08:53.598Z,99.90
2018-01-11T01:11:21.693Z,99.90
2018-01-11T01:13:49.687Z,99.90
2018-01-11T01:16:17.940Z,99.90
2018-01-11T01:18:46.082Z,99.90
2018-01-11T01:21:14.153Z,99.90
2018-01-11T01:23:42.217Z,99.90
2018-01-11T01:26:11.046Z,99.90
2018-01-11T01:28:39.111Z,99.90
2018-01-11T01:31:07.308Z,99.90
2018-01-11T01:33:36.017Z,99.90
2018-01-11T01:36:04.233Z,99.90
2018-01-11T01:38:32.351Z,99.90
2018-01-11T01:41:00.344Z,99.90
2018-01-11T01:43:28.876Z,99.90
2018-01-11T01:45:57.018Z,99.90
2018-01-11T01:48:37.173Z,99.90
2018-01-11T01:51:05.980Z,99.90
2018-01-11T01:53:33.945Z,99.90
2018-01-11T01:56:02.122Z,99.90
2018-01-11T01:58:30.195Z,99.90
2018-01-11T02:00:58.899Z,99.90
2018-01-11T02:03:26.883Z,99.90
2018-01-11T02:05:54.959Z,99.90
2018-01-11T02:08:22.900Z,99.90
2018-01-11T02:10:50.835Z,99.90
2018-01-11T02:13:18.888Z,99.90
2018-01-11T02:15:46.846Z,99.90
2018-01-11T02:18:14.769Z,99.90
2018-01-11T02:20:43.696Z,99.90
2018-01-11T02:23:11.607Z,99.90
2018-01-11T02:25:39.548Z,99.90
2018-01-11T02:28:07.591Z,99.90
2018-01-11T02:30:35.572Z,99.90
2018-01-11T02:33:03.545Z,99.90
2018-01-11T02:35:31.612Z,99.90
2018-01-11T02:37:59.534Z,99.90
2018-01-11T02:40:27.589Z,99.90
2018-01-11T02:42:55.658Z,99.90
2018-01-11T02:45:23.611Z,99.90
2018-01-11T02:47:51.595Z,99.90
2018-01-11T02:50:19.794Z,99.90
2018-01-11T02:52:47.724Z,99.90
2018-01-11T02:55:15.656Z,99.90
2018-01-11T02:57:44.454Z,99.90
2018-01-11T03:00:13.816Z,99.90
2018-01-11T03:02:41.763Z,99.90
2018-01-11T03:05:22.047Z,99.90
2018-01-11T03:07:50.369Z,99.90
2018-01-11T03:10:18.300Z,99.90
2018-01-11T03:12:46.226Z,99.90
2018-01-11T03:15:14.161Z,99.90
2018-01-11T03:17:42.925Z,99.90
2018-01-11T03:20:10.863Z,99.90
2018-01-11T03:22:38.946Z,99.90
2018-01-11T03:25:07.013Z,99.90
2018-01-11T03:27:34.949Z,99.90
2018-01-11T03:30:03.769Z,99.90
2018-01-11T03:32:31.833Z,99.90
2018-01-11T03:34:59.777Z,99.90
2018-01-11T03:37:28.462Z,99.90
2018-01-11T03:39:57.290Z,99.90
2018-01-11T03:42:25.233Z,99.90
2018-01-11T03:44:53.163Z,99.90
2018-01-11T03:47:21.225Z,99.90
2018-01-11T03:49:49.143Z,99.90
2018-01-11T03:52:17.077Z,99.90
2018-01-11T03:54:45.177Z,99.90
2018-01-11T03:57:13.899Z,99.90
2018-01-11T03:59:41.844Z,99.90
2018-01-11T04:02:09.917Z,99.90
2018-01-11T04:04:37.912Z,99.90
2018-01-11T04:07:05.896Z,99.90
2018-01-11T04:09:34.025Z,99.90
2018-01-11T04:12:02.722Z,99.90
2018-01-11T04:14:30.656Z,99.90
2018-01-11T04:16:58.859Z,99.90
2018-01-11T04:19:27.544Z,99.90
2018-01-11T04:21:56.212Z,99.90
2018-01-11T04:24:24.399Z,99.90
2018-01-11T04:26:53.133Z,99.90
2018-01-11T04:29:21.077Z,99.90
2018-01-11T04:31:49.178Z,99.90
2018-01-11T04:34:17.136Z,99.90
2018-01-11T04:36:45.144Z,99.90
2018-01-11T04:39:13.208Z,99.90
2018-01-11T04:41:41.136Z,99.90
2018-01-11T04:44:09.124Z,99.90
2018-01-11T04:46:37.249Z,99.90
2018-01-11T04:49:05.208Z,99.90
2018-01-11T04:51:33.147Z,99.90
2018-01-11T04:54:01.448Z,99.90
2018-01-11T04:56:31.283Z,99.90
2018-01-11T04:58:59.281Z,99.90
2018-01-11T05:01:27.340Z,99.90
2018-01-11T05:03:56.020Z,99.90
2018-01-11T05:06:24.777Z,99.90
2018-01-11T05:08:52.836Z,99.90
2018-01-11T05:11:20.785Z,99.90
2018-01-11T05:13:48.714Z,99.90
2018-01-11T05:16:16.873Z,99.90
2018-01-11T05:18:44.837Z,99.90
2018-01-11T05:21:12.760Z,99.90
2018-01-11T05:23:40.785Z,99.90
2018-01-11T05:26:08.904Z,99.90
2018-01-11T05:28:36.796Z,99.90
2018-01-11T05:31:04.840Z,99.90
2018-01-11T05:33:33.495Z,99.90
2018-01-11T05:36:01.388Z,99.90
2018-01-11T05:38:30.158Z,99.90
2018-01-11T05:40:58.046Z,99.90
2018-01-11T05:43:25.997Z,99.90
2018-01-11T05:45:54.043Z,99.90
2018-01-11T05:48:21.945Z,99.90
2018-01-11T05:50:50.581Z,99.90
2018-01-11T05:53:18.602Z,99.90
2018-01-11T05:55:47.212Z,99.90
2018-01-11T05:58:15.080Z,99.90
2018-01-11T06:00:43.088Z,99.90
2018-01-11T06:03:11.006Z,99.90
2018-01-11T06:05:39.634Z,99.90
2018-01-11T06:08:07.634Z,99.90
2018-01-11T06:10:35.528Z,99.90
2018-01-11T06:13:04.206Z,99.90
2018-01-11T06:15:32.222Z,99.90
2018-01-11T06:18:00.100Z,99.90
2018-01-11T06:20:27.986Z,99.90
2018-01-11T06:22:56.021Z,99.90
2018-01-11T06:25:24.077Z,99.90
2018-01-11T06:27:52.862Z,99.90
2018-01-11T06:30:21.644Z,99.90
2018-01-11T06:32:49.548Z,99.90
2018-01-11T06:35:17.489Z,99.90
2018-01-11T06:37:46.264Z,99.90
2018-01-11T06:40:14.929Z,99.90
2018-01-11T06:42:42.869Z,99.90
2018-01-11T06:45:10.892Z,99.90
2018-01-11T06:47:38.772Z,99.90
2018-01-11T06:50:07.398Z,99.90
2018-01-11T06:52:35.396Z,99.90
2018-01-11T06:55:03.293Z,99.90
2018-01-11T06:57:31.958Z,99.90
2018-01-11T06:59:59.978Z,99.90
2018-01-11T07:02:28.028Z,99.90
2018-01-11T07:04:56.709Z,99.90
2018-01-11T07:07:25.461Z,99.90
2018-01-11T07:09:53.340Z,99.90
2018-01-11T07:12:21.227Z,99.90
2018-01-11T07:14:49.269Z,99.90
2018-01-11T07:17:17.272Z,99.90
2018-01-11T07:19:45.165Z,99.90
2018-01-11T07:22:13.935Z,99.90
2018-01-11T07:24:42.576Z,99.90
2018-01-11T07:27:10.500Z,99.90
2018-01-11T07:29:39.453Z,99.90
2018-01-11T07:32:07.394Z,99.90
2018-01-11T07:34:35.335Z,99.90
2018-01-11T07:37:04.190Z,99.90
2018-01-11T07:39:32.235Z,99.90
2018-01-11T07:42:00.170Z,99.90
2018-01-11T07:44:28.966Z,99.90
2018-01-11T07:46:57.697Z,99.90
2018-01-11T07:49:25.626Z,99.90
2018-01-11T07:51:53.693Z,99.90
2018-01-11T07:54:22.382Z,99.90
2018-01-11T07:56:51.117Z,99.90
2018-01-11T07:59:19.175Z,99.90
2018-01-11T08:01:47.094Z,99.90
2018-01-11T08:04:15.026Z,99.90
2018-01-11T08:06:43.122Z,99.90
2018-01-11T08:09:11.075Z,99.90
2018-01-11T08:11:39.024Z,99.90
2018-01-11T08:14:07.102Z,99.90
2018-01-11T08:16:35.094Z,99.90
2018-01-11T08:19:03.024Z,99.90
2018-01-11T08:21:31.116Z,99.90
2018-01-11T08:23:59.056Z,99.90
2018-01-11T08:26:27.797Z,99.90
2018-01-11T08:28:55.854Z,99.90
2018-01-11T08:31:23.922Z,99.90
2018-01-11T08:33:51.862Z,99.90
2018-01-11T08:36:20.038Z,99.90
2018-01-11T08:38:47.986Z,99.90
2018-01-11T08:41:16.756Z,99.90
2018-01-11T08:43:44.808Z,99.90
2018-01-11T08:46:12.846Z,99.90
2018-01-11T08:48:40.841Z,99.90
2018-01-11T08:51:08.904Z,99.90
2018-01-11T08:53:36.890Z,99.20
2018-01-11T08:56:04.858Z,98.80
2018-01-11T08:58:32.912Z,99.30
2018-01-11T09:01:00.902Z,99.70
2018-01-11T09:03:28.849Z,98.60
2018-01-11T09:05:56.904Z,98.50
2018-01-11T09:08:25.609Z,98.30
2018-01-11T09:10:53.529Z,98.30
2018-01-11T09:13:21.593Z,98.30
2018-01-11T09:15:49.640Z,96.70
2018-01-11T09:18:17.602Z,98.10
2018-01-11T09:20:45.648Z,98.10
2018-01-11T09:23:15.845Z,99.50
2018-01-11T09:25:45.368Z,99.00
2018-01-11T09:28:14.717Z,99.00
2018-01-11T09:30:43.061Z,99.00
2018-01-11T09:33:12.245Z,98.40
2018-01-11T09:35:40.846Z,98.40
2018-01-11T09:38:08.929Z,98.20
2018-01-11T09:40:37.264Z,98.50
2018-01-11T09:43:06.192Z,98.20
2018-01-11T09:45:36.520Z,98.30
2018-01-11T09:48:05.140Z,98.30
2018-01-11T09:50:34.757Z,98.40
2018-01-11T09:53:03.396Z,97.20
2018-01-11T09:55:32.628Z,98.10
2018-01-11T09:58:01.729Z,98.10
2018-01-11T10:00:30.054Z,98.40
2018-01-11T10:02:57.968Z,98.00
2018-01-11T10:05:27.208Z,97.50
2018-01-11T10:07:55.610Z,97.90
2018-01-11T10:10:24.065Z,98.10
2018-01-11T10:12:53.337Z,97.70
2018-01-11T10:15:21.828Z,98.10
2018-01-11T10:17:49.752Z,97.50
2018-01-11T10:20:18.550Z,97.20
2018-01-11T10:22:47.056Z,97.10
2018-01-11T10:25:15.374Z,97.60
2018-01-11T10:27:43.608Z,97.70
2018-01-11T10:30:12.056Z,98.40
2018-01-11T10:32:41.401Z,98.30
2018-01-11T10:35:09.593Z,98.30
2018-01-11T10:37:38.406Z,99.30
2018-01-11T10:40:07.064Z,99.00
2018-01-11T10:42:35.463Z,98.70
2018-01-11T10:45:04.722Z,98.60
2018-01-11T10:47:33.847Z,99.00
2018-01-11T10:50:03.074Z,99.30
2018-01-11T10:52:31.180Z,99.60
2018-01-11T10:54:59.405Z,99.90
2018-01-11T10:57:28.013Z,99.90
2018-01-11T10:59:56.508Z,99.90
2018-01-11T11:02:31.089Z,99.90
2018-01-11T11:05:00.540Z,99.90
2018-01-11T11:07:28.893Z,99.90
2018-01-11T11:09:57.698Z,99.90
2018-01-11T11:12:26.486Z,99.90
2018-01-11T11:14:55.470Z,99.90
2018-01-11T11:17:25.192Z,99.90
2018-01-11T11:19:54.367Z,99.90
2018-01-11T11:22:22.280Z,99.90
2018-01-11T11:24:51.206Z,99.90
2018-01-11T11:27:19.657Z,99.90
2018-01-11T11:29:47.888Z,99.90
2018-01-11T11:32:16.292Z,99.90
2018-01-11T11:34:45.659Z,99.90
2018-01-11T11:37:14.950Z,99.90
2018-01-11T11:39:43.885Z,99.90
2018-01-11T11:42:15.390Z,99.90
2018-01-11T11:44:45.146Z,99.90
2018-01-11T11:47:14.192Z,99.90
2018-01-11T11:49:42.964Z,99.90
2018-01-11T11:52:12.274Z,99.90
2018-01-11T11:54:40.893Z,99.90
2018-01-11T11:57:09.924Z,99.90
2018-01-11T11:59:38.204Z,99.90
2018-01-11T12:02:07.929Z,99.90
2018-01-11T12:04:37.096Z,99.90
2018-01-11T12:07:05.965Z,99.90
2018-01-11T12:09:34.320Z,99.90
2018-01-11T12:12:03.843Z,99.90
2018-01-11T12:14:33.566Z,99.90
2018-01-11T12:17:02.216Z,99.90
2018-01-11T12:19:30.715Z,99.90
2018-01-11T12:21:58.809Z,99.90
2018-01-11T12:24:27.453Z,99.90
2018-01-11T12:26:56.205Z,99.90
2018-01-11T12:29:25.344Z,99.90
2018-01-11T12:31:56.352Z,99.90
2018-01-11T12:34:27.138Z,99.90
2018-01-11T12:36:55.722Z,99.90
2018-01-11T12:39:24.389Z,99.90
2018-01-11T12:41:54.392Z,99.90
2018-01-11T12:44:23.886Z,99.90
2018-01-11T12:46:54.400Z,99.00
2018-01-11T12:49:23.142Z,99.00
2018-01-11T12:51:52.370Z,98.40
2018-01-11T12:54:20.852Z,98.00
2018-01-11T12:56:49.415Z,97.20
2018-01-11T12:59:18.067Z,97.10
2018-01-11T13:01:46.493Z,97.30
2018-01-11T13:04:14.542Z,97.50
2018-01-11T13:06:45.834Z,98.10
2018-01-11T13:09:14.945Z,98.20
2018-01-11T13:11:44.223Z,98.70
2018-01-11T13:14:12.542Z,99.20
2018-01-11T13:16:41.512Z,99.90
2018-01-11T13:19:10.040Z,99.80
2018-01-11T13:21:38.728Z,99.90
2018-01-11T13:24:07.868Z,99.90
2018-01-11T13:26:35.840Z,99.90
2018-01-11T13:29:05.392Z,99.90
2018-01-11T13:31:35.921Z,99.90
2018-01-11T13:34:04.964Z,99.90
2018-01-11T13:36:33.407Z,99.90
2018-01-11T13:39:01.786Z,99.90
2018-01-11T13:41:31.788Z,99.90
2018-01-11T13:44:00.704Z,99.90
2018-01-11T13:55:10.042Z,99.90
2018-01-11T13:57:42.754Z,99.90
2018-01-11T14:00:12.710Z,99.90
2018-01-11T14:02:40.727Z,99.90
2018-01-11T14:05:08.917Z,99.90
2018-01-11T14:07:37.036Z,99.90
2018-01-11T14:10:05.045Z,99.90
2018-01-11T14:12:34.209Z,99.90
2018-01-11T14:15:02.143Z,99.90
2018-01-11T14:17:30.858Z,99.90
2018-01-11T14:19:58.937Z,99.90
2018-01-11T14:22:26.873Z,99.90
2018-01-11T14:24:54.881Z,99.90
2018-01-11T14:27:22.964Z,99.90
2018-01-11T14:29:50.906Z,99.90
2018-01-11T14:32:19.669Z,99.90
2018-01-11T14:34:47.739Z,99.90
2018-01-11T14:37:15.693Z,99.90
2018-01-11T14:39:43.660Z,99.90
2018-01-11T14:42:11.973Z,99.90
2018-01-11T14:44:40.686Z,99.90
2018-01-11T14:47:08.744Z,99.90
2018-01-11T14:49:37.749Z,99.90
2018-01-11T14:52:08.455Z,99.90
2018-01-11T14:54:50.394Z,99.90
2018-01-11T15:14:50.772Z,99.90
2018-01-11T15:17:19.741Z,99.90
2018-01-11T15:19:48.139Z,99.90
2018-01-11T15:25:01.700Z,99.90
2018-01-11T15:27:30.380Z,99.90
2018-01-11T15:30:11.875Z,99.90
2018-01-11T15:32:40.371Z,99.90
2018-01-11T15:35:08.341Z,99.90
2018-01-11T15:37:36.277Z,99.90
2018-01-11T15:40:04.422Z,99.90
2018-01-11T15:42:32.489Z,99.90
2018-01-11T15:45:00.538Z,99.90
2018-01-11T15:47:28.628Z,99.90
2018-01-11T15:49:56.570Z,99.90
2018-01-11T15:52:24.561Z,99.90
2018-01-11T15:54:52.608Z,99.90
2018-01-11T15:57:20.630Z,99.90
2018-01-11T15:59:49.312Z,99.90
2018-01-11T16:02:17.356Z,99.90
2018-01-11T16:04:45.276Z,99.90
2018-01-11T16:07:14.004Z,99.90
2018-01-11T16:09:42.062Z,99.90
2018-01-11T16:12:10.005Z,99.90
2018-01-11T16:14:38.737Z,99.90
2018-01-11T16:20:04.676Z,99.90
2018-01-11T16:22:32.799Z,99.90
2018-01-11T16:25:01.552Z,99.90
2018-01-11T16:27:35.792Z,99.90
2018-01-11T16:30:03.761Z,99.90
2018-01-11T16:32:31.707Z,99.90
2018-01-11T16:34:59.775Z,99.90
2018-01-11T16:37:27.752Z,99.90
2018-01-11T16:39:55.888Z,99.90
2018-01-11T16:42:24.005Z,99.90
2018-01-11T16:44:52.858Z,99.90
2018-01-11T16:47:20.789Z,99.90
2018-01-11T16:49:48.862Z,99.90
2018-01-11T16:52:16.826Z,99.90
2018-01-11T16:54:44.760Z,99.90
2018-01-11T16:57:12.888Z,99.90
2018-01-11T16:59:41.622Z,99.90
2018-01-11T17:02:09.570Z,99.90
2018-01-11T17:04:37.645Z,99.90
2018-01-11T17:07:05.645Z,99.90
2018-01-11T17:09:33.599Z,99.90
2018-01-11T17:12:02.724Z,99.90
2018-01-11T17:14:30.784Z,99.90
2018-01-11T17:16:58.758Z,99.90
2018-01-11T17:19:26.821Z,99.90
2018-01-11T17:21:54.781Z,99.90
2018-01-11T17:24:22.716Z,99.90
2018-01-11T17:26:51.590Z,99.90
2018-01-11T17:29:19.531Z,99.90
2018-01-11T17:31:47.483Z,99.90
2018-01-11T17:34:15.536Z,99.90
2018-01-11T17:36:43.516Z,99.90
2018-01-11T17:39:11.445Z,99.90
2018-01-11T17:41:39.490Z,99.90
2018-01-11T17:44:07.434Z,99.90
2018-01-11T17:46:35.637Z,99.90
2018-01-11T17:49:03.721Z,99.90
2018-01-11T17:51:33.755Z,99.90
2018-01-11T17:54:01.740Z,99.90
2018-01-11T17:56:30.616Z,99.90
2018-01-11T17:58:58.613Z,99.90
2018-01-11T18:04:22.393Z,99.90
2018-01-11T18:18:24.608Z,99.90
2018-01-11T18:20:52.574Z,99.90
2018-01-11T18:23:20.527Z,99.90
2018-01-11T18:25:48.681Z,99.90
2018-01-11T18:28:16.636Z,99.90
2018-01-11T18:30:45.369Z,99.90
2018-01-11T18:33:13.453Z,99.90
2018-01-11T18:35:41.405Z,99.90
2018-01-11T18:38:09.372Z,99.90
2018-01-11T18:40:37.449Z,99.90
2018-01-11T18:43:05.388Z,99.90
2018-01-11T18:45:34.146Z,99.90
2018-01-11T18:48:02.359Z,99.90
2018-01-11T18:50:30.297Z,99.90
2018-01-11T18:52:58.237Z,99.90
2018-01-11T18:55:26.314Z,99.90
2018-01-11T18:57:54.253Z,99.90
2018-01-11T19:00:22.177Z,99.90
2018-01-11T19:02:50.272Z,99.90
2018-01-11T19:05:18.955Z,99.90
2018-01-11T19:07:47.629Z,99.90
2018-01-11T19:10:15.692Z,99.90
2018-01-11T19:12:43.628Z,99.90
2018-01-11T19:15:11.572Z,99.90
2018-01-11T19:17:39.718Z,99.90
2018-01-11T19:20:07.653Z,99.90
2018-01-11T19:22:35.596Z,99.90
2018-01-11T19:25:03.652Z,99.90
2018-01-11T19:27:32.342Z,99.90
2018-01-11T19:30:01.021Z,99.90
2018-01-11T19:32:29.812Z,99.90
2018-01-11T19:34:58.540Z,99.90
2018-01-11T19:37:26.489Z,99.90
2018-01-11T19:39:54.721Z,99.90
2018-01-11T19:42:22.684Z,99.90
2018-01-11T19:44:50.633Z,99.90
2018-01-11T19:47:18.690Z,99.90
2018-01-11T19:49:46.772Z,99.90
2018-01-11T19:52:14.708Z,99.90
2018-01-11T19:54:43.522Z,99.90
2018-01-11T19:57:11.459Z,99.90
2018-01-11T19:59:40.125Z,99.90
2018-01-11T20:02:08.206Z,99.90
2018-01-11T20:04:36.140Z,99.90
2018-01-11T20:07:04.109Z,99.90
2018-01-11T20:09:32.203Z,99.90
2018-01-11T20:12:00.121Z,99.90
2018-01-11T20:14:28.594Z,99.90
2018-01-11T20:16:56.711Z,99.90
2018-01-11T20:19:25.457Z,99.90
2018-01-11T20:21:54.142Z,99.90
2018-01-11T20:24:22.930Z,99.90
2018-01-11T20:26:51.596Z,99.90
2018-01-11T20:29:19.549Z,99.90
2018-01-11T20:31:47.600Z,99.90
2018-01-11T20:34:15.542Z,99.90
2018-01-11T20:36:43.678Z,99.90
2018-01-11T20:39:11.757Z,99.90
2018-01-11T20:41:39.690Z,99.90
2018-01-11T20:44:07.630Z,99.90
2018-01-11T20:46:35.752Z,99.90
2018-01-11T20:49:03.713Z,99.90
2018-01-11T20:51:31.805Z,99.90
2018-01-11T20:53:59.860Z,99.90
2018-01-11T20:56:27.824Z,99.90
2018-01-11T20:58:55.761Z,99.90
2018-01-11T21:01:23.948Z,99.90
2018-01-11T21:03:51.884Z,99.90
2018-01-11T21:06:20.568Z,99.90
2018-01-11T21:08:49.373Z,99.90
2018-01-11T21:11:18.042Z,99.90
2018-01-11T21:13:46.726Z,99.90
2018-01-11T21:16:15.609Z,99.90
2018-01-11T21:18:43.540Z,99.90
2018-01-11T21:21:11.485Z,99.90
2018-01-11T21:23:39.536Z,99.90
2018-01-11T21:26:08.290Z,99.90
2018-01-11T21:28:36.212Z,99.90
2018-01-11T21:31:04.282Z,99.90
2018-01-11T21:33:32.960Z,99.90
2018-01-11T21:36:01.701Z,99.90
2018-01-11T21:38:29.756Z,99.90
2018-01-11T21:40:57.700Z,99.90
2018-01-11T21:43:26.361Z,99.90
2018-01-11T21:45:54.430Z,99.90
2018-01-11T21:48:22.372Z,99.90
2018-01-11T21:50:50.313Z,99.90
2018-01-11T21:53:18.541Z,99.90
2018-01-11T21:55:46.580Z,99.90
2018-01-11T21:58:14.526Z,99.90
2018-01-11T22:00:42.618Z,99.90
2018-01-11T22:03:10.545Z,99.90
2018-01-11T22:05:39.229Z,99.90
2018-01-11T22:08:08.050Z,99.90
2018-01-11T22:10:35.994Z,99.90
2018-01-11T22:13:04.661Z,99.90
2018-01-11T22:15:32.746Z,99.90
2018-01-11T22:18:01.426Z,99.90
2018-01-11T22:20:29.361Z,99.90
2018-01-11T22:22:57.438Z,99.90
2018-01-11T22:25:25.382Z,99.90
2018-01-11T22:27:53.342Z,99.90
2018-01-11T22:30:21.396Z,99.90
2018-01-11T22:32:50.077Z,99.90
2018-01-11T22:35:18.774Z,99.90
2018-01-11T22:37:47.573Z,99.90
2018-01-11T22:40:16.258Z,99.90
2018-01-11T22:42:44.942Z,99.90
2018-01-11T22:45:13.762Z,99.90
2018-01-11T22:47:41.780Z,99.90
2018-01-11T22:50:10.472Z,99.90
2018-01-11T22:52:38.534Z,99.90
2018-01-11T22:55:06.613Z,99.90
2018-01-11T22:57:34.547Z,99.90
2018-01-11T23:00:02.624Z,99.90
2018-01-11T23:02:30.583Z,99.90
2018-01-11T23:04:58.521Z,99.90
2018-01-11T23:07:27.317Z,99.90
2018-01-11T23:09:56.016Z,99.90
2018-01-11T23:12:23.949Z,99.90
2018-01-11T23:14:52.014Z,99.90
2018-01-11T23:17:19.952Z,99.90
2018-01-11T23:19:47.885Z,99.90
2018-01-11T23:22:16.718Z,99.90
2018-01-11T23:24:44.669Z,99.90
2018-01-11T23:27:12.658Z,99.90
2018-01-11T23:29:40.729Z,99.90
2018-01-11T23:32:08.656Z,99.90
2018-01-11T23:34:37.317Z,99.90
2018-01-11T23:37:05.489Z,99.90
2018-01-11T23:39:33.548Z,99.90
2018-01-11T23:42:01.493Z,99.90
2018-01-11T23:44:29.568Z,99.90
2018-01-11T23:46:57.556Z,99.90
2018-01-11T23:49:25.513Z,99.90
2018-01-11T23:51:53.598Z,99.90
2018-01-11T23:54:21.543Z,99.90
2018-01-11T23:56:49.604Z,99.90
2018-01-11T23:59:17.804Z,99.90
